sensor_id;sensor_type;location;lat;lon;timestamp;P1;durP1;ratioP1;P2;durP2;ratioP2
63312;SDS011;49442;45.640;13.812;2022-08-25T00:01:42;9.37;;;6.20;;
63312;SDS011;49442;45.640;13.812;2022-08-25T00:04:14;9.32;;;5.95;;
63312;SDS011;49442;45.640;13.812;2022-08-25T00:06:42;7.72;;;5.82;;
63312;SDS011;49442;45.640;13.812;2022-08-25T00:09:09;8.18;;;6.15;;
63312;SDS011;49442;45.640;13.812;2022-08-25T00:11:37;10.05;;;5.50;;
63312;SDS011;49442;45.640;13.812;2022-08-25T00:14:05;9.88;;;6.05;;
63312;SDS011;49442;45.640;13.812;2022-08-25T00:16:34;7.82;;;5.72;;
63312;SDS011;49442;45.640;13.812;2022-08-25T00:19:01;6.50;;;5.63;;
63312;SDS011;49442;45.640;13.812;2022-08-25T00:21:33;6.68;;;5.63;;
63312;SDS011;49442;45.640;13.812;2022-08-25T00:23:59;8.88;;;5.90;;
63312;SDS011;49442;45.640;13.812;2022-08-25T00:26:29;9.38;;;5.75;;
63312;SDS011;49442;45.640;13.812;2022-08-25T00:28:55;7.00;;;5.60;;
63312;SDS011;49442;45.640;13.812;2022-08-25T00:31:22;8.20;;;5.53;;
63312;SDS011;49442;45.640;13.812;2022-08-25T00:33:48;6.40;;;5.25;;
63312;SDS011;49442;45.640;13.812;2022-08-25T00:36:15;8.93;;;6.13;;
63312;SDS011;49442;45.640;13.812;2022-08-25T00:38:43;7.05;;;5.63;;
63312;SDS011;49442;45.640;13.812;2022-08-25T00:41:10;11.13;;;5.78;;
63312;SDS011;49442;45.640;13.812;2022-08-25T00:46:05;9.00;;;5.75;;
63312;SDS011;49442;45.640;13.812;2022-08-25T00:48:31;7.15;;;6.45;;
63312;SDS011;49442;45.640;13.812;2022-08-25T00:50:57;8.77;;;5.80;;
63312;SDS011;49442;45.640;13.812;2022-08-25T00:53:24;7.43;;;5.80;;
63312;SDS011;49442;45.640;13.812;2022-08-25T00:55:50;9.90;;;5.97;;
63312;SDS011;49442;45.640;13.812;2022-08-25T00:58:20;8.00;;;5.57;;
63312;SDS011;49442;45.640;13.812;2022-08-25T01:00:50;6.40;;;5.43;;
63312;SDS011;49442;45.640;13.812;2022-08-25T01:03:19;8.10;;;5.70;;
63312;SDS011;49442;45.640;13.812;2022-08-25T01:05:46;8.82;;;5.90;;
63312;SDS011;49442;45.640;13.812;2022-08-25T01:08:12;8.00;;;6.38;;
63312;SDS011;49442;45.640;13.812;2022-08-25T01:10:40;7.70;;;6.05;;
63312;SDS011;49442;45.640;13.812;2022-08-25T01:13:10;9.25;;;6.43;;
63312;SDS011;49442;45.640;13.812;2022-08-25T01:16:06;8.18;;;6.18;;
63312;SDS011;49442;45.640;13.812;2022-08-25T01:18:46;12.77;;;6.50;;
63312;SDS011;49442;45.640;13.812;2022-08-25T01:21:17;8.73;;;6.80;;
63312;SDS011;49442;45.640;13.812;2022-08-25T01:23:46;8.20;;;5.95;;
63312;SDS011;49442;45.640;13.812;2022-08-25T01:26:20;8.68;;;6.55;;
63312;SDS011;49442;45.640;13.812;2022-08-25T01:28:48;8.02;;;6.30;;
63312;SDS011;49442;45.640;13.812;2022-08-25T01:31:33;11.65;;;5.90;;
63312;SDS011;49442;45.640;13.812;2022-08-25T01:34:00;10.95;;;6.07;;
63312;SDS011;49442;45.640;13.812;2022-08-25T01:36:28;7.95;;;5.78;;
63312;SDS011;49442;45.640;13.812;2022-08-25T01:38:54;13.45;;;6.85;;
63312;SDS011;49442;45.640;13.812;2022-08-25T01:41:25;9.98;;;6.93;;
63312;SDS011;49442;45.640;13.812;2022-08-25T01:43:51;8.50;;;6.63;;
63312;SDS011;49442;45.640;13.812;2022-08-25T01:46:17;12.18;;;6.93;;
63312;SDS011;49442;45.640;13.812;2022-08-25T01:48:43;7.38;;;6.13;;
63312;SDS011;49442;45.640;13.812;2022-08-25T01:51:08;7.53;;;6.07;;
63312;SDS011;49442;45.640;13.812;2022-08-25T01:53:34;8.80;;;6.38;;
63312;SDS011;49442;45.640;13.812;2022-08-25T01:56:09;8.30;;;6.30;;
63312;SDS011;49442;45.640;13.812;2022-08-25T01:58:38;8.70;;;6.82;;
63312;SDS011;49442;45.640;13.812;2022-08-25T02:01:11;6.90;;;6.00;;
63312;SDS011;49442;45.640;13.812;2022-08-25T02:03:48;12.48;;;5.95;;
63312;SDS011;49442;45.640;13.812;2022-08-25T02:06:26;7.25;;;6.03;;
63312;SDS011;49442;45.640;13.812;2022-08-25T02:08:57;8.50;;;6.70;;
63312;SDS011;49442;45.640;13.812;2022-08-25T02:11:26;7.03;;;6.07;;
63312;SDS011;49442;45.640;13.812;2022-08-25T02:13:52;10.73;;;6.57;;
63312;SDS011;49442;45.640;13.812;2022-08-25T02:16:25;7.80;;;6.13;;
63312;SDS011;49442;45.640;13.812;2022-08-25T02:18:56;7.75;;;6.47;;
63312;SDS011;49442;45.640;13.812;2022-08-25T02:21:23;10.35;;;6.43;;
63312;SDS011;49442;45.640;13.812;2022-08-25T02:23:49;9.55;;;6.07;;
63312;SDS011;49442;45.640;13.812;2022-08-25T02:26:15;8.77;;;6.80;;
63312;SDS011;49442;45.640;13.812;2022-08-25T02:28:43;8.93;;;6.70;;
63312;SDS011;49442;45.640;13.812;2022-08-25T02:31:13;10.32;;;6.32;;
63312;SDS011;49442;45.640;13.812;2022-08-25T02:33:40;7.18;;;6.20;;
63312;SDS011;49442;45.640;13.812;2022-08-25T02:36:06;8.60;;;6.78;;
63312;SDS011;49442;45.640;13.812;2022-08-25T02:38:32;9.55;;;6.65;;
63312;SDS011;49442;45.640;13.812;2022-08-25T02:40:59;8.40;;;6.47;;
63312;SDS011;49442;45.640;13.812;2022-08-25T02:43:32;12.15;;;6.47;;
63312;SDS011;49442;45.640;13.812;2022-08-25T02:45:57;8.48;;;6.65;;
63312;SDS011;49442;45.640;13.812;2022-08-25T02:48:23;6.95;;;6.22;;
63312;SDS011;49442;45.640;13.812;2022-08-25T02:50:50;10.32;;;6.55;;
63312;SDS011;49442;45.640;13.812;2022-08-25T02:53:17;8.13;;;6.47;;
63312;SDS011;49442;45.640;13.812;2022-08-25T02:55:46;10.43;;;6.93;;
63312;SDS011;49442;45.640;13.812;2022-08-25T02:58:12;7.88;;;6.50;;
63312;SDS011;49442;45.640;13.812;2022-08-25T03:00:39;7.80;;;6.43;;
63312;SDS011;49442;45.640;13.812;2022-08-25T03:03:04;8.10;;;6.18;;
63312;SDS011;49442;45.640;13.812;2022-08-25T03:05:31;8.68;;;6.47;;
63312;SDS011;49442;45.640;13.812;2022-08-25T03:07:57;8.52;;;6.40;;
63312;SDS011;49442;45.640;13.812;2022-08-25T03:10:23;10.93;;;6.75;;
63312;SDS011;49442;45.640;13.812;2022-08-25T03:12:49;8.25;;;6.90;;
63312;SDS011;49442;45.640;13.812;2022-08-25T03:15:15;7.40;;;6.65;;
63312;SDS011;49442;45.640;13.812;2022-08-25T03:17:42;11.45;;;6.78;;
63312;SDS011;49442;45.640;13.812;2022-08-25T03:20:09;9.23;;;6.28;;
63312;SDS011;49442;45.640;13.812;2022-08-25T03:22:35;9.90;;;6.93;;
63312;SDS011;49442;45.640;13.812;2022-08-25T03:25:02;6.70;;;5.78;;
63312;SDS011;49442;45.640;13.812;2022-08-25T03:27:46;13.75;;;6.88;;
63312;SDS011;49442;45.640;13.812;2022-08-25T03:30:13;9.15;;;6.47;;
63312;SDS011;49442;45.640;13.812;2022-08-25T03:32:40;10.52;;;6.13;;
63312;SDS011;49442;45.640;13.812;2022-08-25T03:35:07;9.25;;;6.43;;
63312;SDS011;49442;45.640;13.812;2022-08-25T03:37:33;7.78;;;6.40;;
63312;SDS011;49442;45.640;13.812;2022-08-25T03:39:58;8.40;;;6.97;;
63312;SDS011;49442;45.640;13.812;2022-08-25T03:42:26;11.27;;;6.47;;
63312;SDS011;49442;45.640;13.812;2022-08-25T03:44:51;11.00;;;6.82;;
63312;SDS011;49442;45.640;13.812;2022-08-25T03:47:17;11.55;;;6.53;;
63312;SDS011;49442;45.640;13.812;2022-08-25T03:49:42;8.65;;;6.30;;
63312;SDS011;49442;45.640;13.812;2022-08-25T03:52:08;14.75;;;6.75;;
63312;SDS011;49442;45.640;13.812;2022-08-25T03:54:34;11.75;;;6.93;;
63312;SDS011;49442;45.640;13.812;2022-08-25T03:57:00;8.10;;;6.60;;
63312;SDS011;49442;45.640;13.812;2022-08-25T03:59:25;14.48;;;7.03;;
63312;SDS011;49442;45.640;13.812;2022-08-25T04:01:51;8.60;;;6.10;;
63312;SDS011;49442;45.640;13.812;2022-08-25T04:04:17;9.07;;;6.35;;
63312;SDS011;49442;45.640;13.812;2022-08-25T04:06:44;10.50;;;7.38;;
63312;SDS011;49442;45.640;13.812;2022-08-25T04:09:11;11.15;;;6.88;;
63312;SDS011;49442;45.640;13.812;2022-08-25T04:11:37;9.90;;;6.40;;
63312;SDS011;49442;45.640;13.812;2022-08-25T04:14:03;9.13;;;7.05;;
63312;SDS011;49442;45.640;13.812;2022-08-25T04:16:30;13.88;;;6.85;;
63312;SDS011;49442;45.640;13.812;2022-08-25T04:18:59;9.65;;;6.68;;
63312;SDS011;49442;45.640;13.812;2022-08-25T04:21:26;8.75;;;6.68;;
63312;SDS011;49442;45.640;13.812;2022-08-25T04:23:53;10.73;;;7.15;;
63312;SDS011;49442;45.640;13.812;2022-08-25T04:26:21;7.32;;;6.63;;
63312;SDS011;49442;45.640;13.812;2022-08-25T04:28:51;11.90;;;7.00;;
63312;SDS011;49442;45.640;13.812;2022-08-25T04:31:18;9.85;;;6.20;;
63312;SDS011;49442;45.640;13.812;2022-08-25T04:33:45;10.10;;;7.47;;
63312;SDS011;49442;45.640;13.812;2022-08-25T04:36:12;7.65;;;6.57;;
63312;SDS011;49442;45.640;13.812;2022-08-25T04:38:40;11.68;;;6.72;;
63312;SDS011;49442;45.640;13.812;2022-08-25T04:41:08;6.88;;;6.18;;
63312;SDS011;49442;45.640;13.812;2022-08-25T04:43:37;7.88;;;6.50;;
63312;SDS011;49442;45.640;13.812;2022-08-25T04:46:08;11.23;;;7.03;;
63312;SDS011;49442;45.640;13.812;2022-08-25T04:48:36;8.18;;;6.80;;
63312;SDS011;49442;45.640;13.812;2022-08-25T04:51:05;9.88;;;6.35;;
63312;SDS011;49442;45.640;13.812;2022-08-25T04:53:32;8.23;;;6.95;;
63312;SDS011;49442;45.640;13.812;2022-08-25T04:55:58;9.57;;;7.35;;
63312;SDS011;49442;45.640;13.812;2022-08-25T04:58:24;10.40;;;7.05;;
63312;SDS011;49442;45.640;13.812;2022-08-25T05:00:51;9.73;;;6.40;;
63312;SDS011;49442;45.640;13.812;2022-08-25T05:03:17;13.30;;;7.18;;
63312;SDS011;49442;45.640;13.812;2022-08-25T05:05:42;8.75;;;6.40;;
63312;SDS011;49442;45.640;13.812;2022-08-25T05:08:08;8.02;;;6.82;;
63312;SDS011;49442;45.640;13.812;2022-08-25T05:10:37;11.23;;;7.00;;
63312;SDS011;49442;45.640;13.812;2022-08-25T05:13:04;9.95;;;6.45;;
63312;SDS011;49442;45.640;13.812;2022-08-25T05:15:30;10.88;;;7.45;;
63312;SDS011;49442;45.640;13.812;2022-08-25T05:18:14;8.07;;;6.75;;
63312;SDS011;49442;45.640;13.812;2022-08-25T05:20:40;13.20;;;6.97;;
63312;SDS011;49442;45.640;13.812;2022-08-25T05:23:06;10.43;;;6.65;;
63312;SDS011;49442;45.640;13.812;2022-08-25T05:25:32;10.15;;;7.25;;
63312;SDS011;49442;45.640;13.812;2022-08-25T05:27:58;10.40;;;6.38;;
63312;SDS011;49442;45.640;13.812;2022-08-25T05:30:24;9.77;;;6.70;;
63312;SDS011;49442;45.640;13.812;2022-08-25T05:32:49;8.32;;;6.32;;
63312;SDS011;49442;45.640;13.812;2022-08-25T05:35:15;10.77;;;6.90;;
63312;SDS011;49442;45.640;13.812;2022-08-25T05:37:41;8.75;;;6.70;;
63312;SDS011;49442;45.640;13.812;2022-08-25T05:40:07;11.38;;;6.57;;
63312;SDS011;49442;45.640;13.812;2022-08-25T05:42:34;11.93;;;6.78;;
63312;SDS011;49442;45.640;13.812;2022-08-25T05:45:00;10.38;;;6.95;;
63312;SDS011;49442;45.640;13.812;2022-08-25T05:47:26;8.82;;;6.47;;
63312;SDS011;49442;45.640;13.812;2022-08-25T05:49:52;10.07;;;6.50;;
63312;SDS011;49442;45.640;13.812;2022-08-25T05:52:17;9.82;;;6.80;;
63312;SDS011;49442;45.640;13.812;2022-08-25T05:54:44;7.45;;;6.07;;
63312;SDS011;49442;45.640;13.812;2022-08-25T05:57:10;10.18;;;7.00;;
63312;SDS011;49442;45.640;13.812;2022-08-25T05:59:36;11.60;;;7.07;;
63312;SDS011;49442;45.640;13.812;2022-08-25T06:02:02;11.57;;;7.10;;
63312;SDS011;49442;45.640;13.812;2022-08-25T06:04:46;8.63;;;6.40;;
63312;SDS011;49442;45.640;13.812;2022-08-25T06:07:11;8.45;;;6.45;;
63312;SDS011;49442;45.640;13.812;2022-08-25T06:09:38;11.45;;;6.03;;
63312;SDS011;49442;45.640;13.812;2022-08-25T06:12:05;11.93;;;7.32;;
63312;SDS011;49442;45.640;13.812;2022-08-25T06:14:32;12.63;;;6.70;;
63312;SDS011;49442;45.640;13.812;2022-08-25T06:16:58;9.45;;;7.47;;
63312;SDS011;49442;45.640;13.812;2022-08-25T06:19:24;9.95;;;6.30;;
63312;SDS011;49442;45.640;13.812;2022-08-25T06:21:56;8.75;;;6.35;;
63312;SDS011;49442;45.640;13.812;2022-08-25T06:24:23;12.45;;;7.38;;
63312;SDS011;49442;45.640;13.812;2022-08-25T06:26:50;9.77;;;6.60;;
63312;SDS011;49442;45.640;13.812;2022-08-25T06:29:16;12.27;;;6.60;;
63312;SDS011;49442;45.640;13.812;2022-08-25T06:31:43;9.60;;;5.95;;
63312;SDS011;49442;45.640;13.812;2022-08-25T06:34:10;9.38;;;6.95;;
63312;SDS011;49442;45.640;13.812;2022-08-25T06:36:36;10.80;;;5.95;;
63312;SDS011;49442;45.640;13.812;2022-08-25T06:39:02;10.43;;;6.40;;
63312;SDS011;49442;45.640;13.812;2022-08-25T06:41:28;8.70;;;6.82;;
63312;SDS011;49442;45.640;13.812;2022-08-25T06:43:54;10.48;;;6.72;;
63312;SDS011;49442;45.640;13.812;2022-08-25T06:46:21;7.43;;;6.30;;
63312;SDS011;49442;45.640;13.812;2022-08-25T06:48:48;9.65;;;6.72;;
63312;SDS011;49442;45.640;13.812;2022-08-25T06:51:15;12.30;;;6.78;;
63312;SDS011;49442;45.640;13.812;2022-08-25T06:53:43;8.88;;;6.43;;
63312;SDS011;49442;45.640;13.812;2022-08-25T06:56:10;8.38;;;6.65;;
63312;SDS011;49442;45.640;13.812;2022-08-25T06:58:36;11.70;;;6.82;;
63312;SDS011;49442;45.640;13.812;2022-08-25T07:01:10;9.82;;;6.93;;
63312;SDS011;49442;45.640;13.812;2022-08-25T07:03:37;10.40;;;6.18;;
63312;SDS011;49442;45.640;13.812;2022-08-25T07:06:03;8.20;;;6.60;;
63312;SDS011;49442;45.640;13.812;2022-08-25T07:08:30;9.73;;;6.50;;
63312;SDS011;49442;45.640;13.812;2022-08-25T07:10:56;12.40;;;7.30;;
63312;SDS011;49442;45.640;13.812;2022-08-25T07:13:22;8.43;;;6.75;;
63312;SDS011;49442;45.640;13.812;2022-08-25T07:15:51;9.50;;;6.93;;
63312;SDS011;49442;45.640;13.812;2022-08-25T07:18:19;10.38;;;6.43;;
63312;SDS011;49442;45.640;13.812;2022-08-25T07:20:44;8.93;;;6.43;;
63312;SDS011;49442;45.640;13.812;2022-08-25T07:23:10;8.82;;;6.38;;
63312;SDS011;49442;45.640;13.812;2022-08-25T07:25:36;11.20;;;6.90;;
63312;SDS011;49442;45.640;13.812;2022-08-25T07:28:02;10.40;;;6.63;;
63312;SDS011;49442;45.640;13.812;2022-08-25T07:30:28;11.95;;;6.95;;
63312;SDS011;49442;45.640;13.812;2022-08-25T07:32:54;7.72;;;6.07;;
63312;SDS011;49442;45.640;13.812;2022-08-25T07:35:21;9.82;;;6.55;;
63312;SDS011;49442;45.640;13.812;2022-08-25T07:37:50;12.10;;;7.32;;
63312;SDS011;49442;45.640;13.812;2022-08-25T07:42:54;10.63;;;6.70;;
63312;SDS011;49442;45.640;13.812;2022-08-25T07:45:22;8.70;;;6.15;;
63312;SDS011;49442;45.640;13.812;2022-08-25T07:47:58;8.07;;;6.55;;
63312;SDS011;49442;45.640;13.812;2022-08-25T07:50:24;13.57;;;6.90;;
63312;SDS011;49442;45.640;13.812;2022-08-25T07:52:51;7.95;;;6.22;;
63312;SDS011;49442;45.640;13.812;2022-08-25T07:55:18;9.60;;;6.30;;
63312;SDS011;49442;45.640;13.812;2022-08-25T07:57:44;9.95;;;6.50;;
63312;SDS011;49442;45.640;13.812;2022-08-25T08:00:12;11.13;;;6.30;;
63312;SDS011;49442;45.640;13.812;2022-08-25T08:02:39;12.43;;;6.68;;
63312;SDS011;49442;45.640;13.812;2022-08-25T08:05:06;10.15;;;6.60;;
63312;SDS011;49442;45.640;13.812;2022-08-25T08:07:32;13.68;;;6.57;;
63312;SDS011;49442;45.640;13.812;2022-08-25T08:09:58;10.43;;;6.82;;
63312;SDS011;49442;45.640;13.812;2022-08-25T08:12:24;13.63;;;6.47;;
63312;SDS011;49442;45.640;13.812;2022-08-25T08:14:51;10.05;;;6.07;;
63312;SDS011;49442;45.640;13.812;2022-08-25T08:17:17;12.63;;;6.53;;
63312;SDS011;49442;45.640;13.812;2022-08-25T08:19:46;15.32;;;6.82;;
63312;SDS011;49442;45.640;13.812;2022-08-25T08:22:12;13.05;;;7.03;;
63312;SDS011;49442;45.640;13.812;2022-08-25T08:24:42;12.02;;;6.55;;
63312;SDS011;49442;45.640;13.812;2022-08-25T08:27:09;12.10;;;6.57;;
63312;SDS011;49442;45.640;13.812;2022-08-25T08:29:37;12.32;;;6.32;;
63312;SDS011;49442;45.640;13.812;2022-08-25T08:32:05;10.85;;;6.93;;
63312;SDS011;49442;45.640;13.812;2022-08-25T08:34:32;8.73;;;6.38;;
63312;SDS011;49442;45.640;13.812;2022-08-25T08:36:58;13.95;;;6.30;;
63312;SDS011;49442;45.640;13.812;2022-08-25T08:39:25;12.55;;;6.88;;
63312;SDS011;49442;45.640;13.812;2022-08-25T08:52:28;14.30;;;5.68;;
63312;SDS011;49442;45.640;13.812;2022-08-25T08:55:10;13.15;;;6.05;;
63312;SDS011;49442;45.640;13.812;2022-08-25T08:57:47;8.15;;;6.00;;
63312;SDS011;49442;45.640;13.812;2022-08-25T09:00:16;13.60;;;6.63;;
63312;SDS011;49442;45.640;13.812;2022-08-25T09:02:50;10.77;;;5.60;;
63312;SDS011;49442;45.640;13.812;2022-08-25T09:05:17;13.20;;;6.55;;
63312;SDS011;49442;45.640;13.812;2022-08-25T09:10:13;9.38;;;5.43;;
63312;SDS011;49442;45.640;13.812;2022-08-25T09:26:41;10.98;;;5.72;;
63312;SDS011;49442;45.640;13.812;2022-08-25T09:29:21;11.60;;;5.20;;
63312;SDS011;49442;45.640;13.812;2022-08-25T09:31:49;13.77;;;5.95;;
63312;SDS011;49442;45.640;13.812;2022-08-25T09:34:19;9.82;;;6.32;;
63312;SDS011;49442;45.640;13.812;2022-08-25T09:36:47;10.77;;;5.13;;
63312;SDS011;49442;45.640;13.812;2022-08-25T09:39:17;14.07;;;6.00;;
63312;SDS011;49442;45.640;13.812;2022-08-25T09:41:47;11.80;;;5.90;;
63312;SDS011;49442;45.640;13.812;2022-08-25T09:44:22;8.20;;;5.72;;
63312;SDS011;49442;45.640;13.812;2022-08-25T09:46:56;11.65;;;6.38;;
63312;SDS011;49442;45.640;13.812;2022-08-25T09:49:31;10.65;;;5.82;;
63312;SDS011;49442;45.640;13.812;2022-08-25T09:52:19;13.13;;;5.30;;
63312;SDS011;49442;45.640;13.812;2022-08-25T09:54:47;13.55;;;5.85;;
63312;SDS011;49442;45.640;13.812;2022-08-25T09:57:31;7.97;;;4.93;;
63312;SDS011;49442;45.640;13.812;2022-08-25T10:00:13;15.88;;;6.22;;
63312;SDS011;49442;45.640;13.812;2022-08-25T10:02:43;10.75;;;5.65;;
63312;SDS011;49442;45.640;13.812;2022-08-25T10:05:27;12.07;;;5.85;;
63312;SDS011;49442;45.640;13.812;2022-08-25T10:07:59;21.17;;;5.60;;
63312;SDS011;49442;45.640;13.812;2022-08-25T10:10:34;13.82;;;5.72;;
63312;SDS011;49442;45.640;13.812;2022-08-25T10:13:11;10.75;;;5.70;;
63312;SDS011;49442;45.640;13.812;2022-08-25T10:15:39;11.68;;;6.25;;
63312;SDS011;49442;45.640;13.812;2022-08-25T10:23:36;15.23;;;5.72;;
63312;SDS011;49442;45.640;13.812;2022-08-25T10:26:09;12.95;;;5.80;;
63312;SDS011;49442;45.640;13.812;2022-08-25T10:28:48;11.55;;;6.25;;
63312;SDS011;49442;45.640;13.812;2022-08-25T10:31:23;11.45;;;5.22;;
63312;SDS011;49442;45.640;13.812;2022-08-25T10:39:12;16.65;;;5.50;;
63312;SDS011;49442;45.640;13.812;2022-08-25T10:49:55;9.10;;;5.28;;
63312;SDS011;49442;45.640;13.812;2022-08-25T10:55:19;15.52;;;6.50;;
63312;SDS011;49442;45.640;13.812;2022-08-25T10:58:04;12.18;;;5.57;;
63312;SDS011;49442;45.640;13.812;2022-08-25T11:00:54;11.43;;;5.57;;
63312;SDS011;49442;45.640;13.812;2022-08-25T11:03:37;16.57;;;5.67;;
63312;SDS011;49442;45.640;13.812;2022-08-25T11:06:06;12.13;;;5.68;;
63312;SDS011;49442;45.640;13.812;2022-08-25T11:08:52;10.98;;;5.28;;
63312;SDS011;49442;45.640;13.812;2022-08-25T11:11:36;7.43;;;5.43;;
63312;SDS011;49442;45.640;13.812;2022-08-25T11:14:11;11.00;;;5.53;;
63312;SDS011;49442;45.640;13.812;2022-08-25T11:16:54;11.95;;;5.60;;
63312;SDS011;49442;45.640;13.812;2022-08-25T11:19:35;11.60;;;5.85;;
63312;SDS011;49442;45.640;13.812;2022-08-25T11:28:06;12.23;;;5.68;;
63312;SDS011;49442;45.640;13.812;2022-08-25T11:30:44;11.15;;;5.80;;
63312;SDS011;49442;45.640;13.812;2022-08-25T11:33:11;16.17;;;5.38;;
63312;SDS011;49442;45.640;13.812;2022-08-25T11:35:50;9.85;;;5.00;;
63312;SDS011;49442;45.640;13.812;2022-08-25T11:41:14;12.38;;;5.47;;
63312;SDS011;49442;45.640;13.812;2022-08-25T11:46:50;13.18;;;5.03;;
63312;SDS011;49442;45.640;13.812;2022-08-25T11:57:31;7.63;;;4.88;;
63312;SDS011;49442;45.640;13.812;2022-08-25T11:59:58;12.13;;;4.85;;
63312;SDS011;49442;45.640;13.812;2022-08-25T12:19:21;16.05;;;5.50;;
63312;SDS011;49442;45.640;13.812;2022-08-25T12:21:49;12.02;;;5.28;;
63312;SDS011;49442;45.640;13.812;2022-08-25T12:35:58;9.48;;;5.03;;
63312;SDS011;49442;45.640;13.812;2022-08-25T12:41:17;12.85;;;5.28;;
63312;SDS011;49442;45.640;13.812;2022-08-25T12:43:49;7.93;;;5.00;;
63312;SDS011;49442;45.640;13.812;2022-08-25T12:51:18;11.60;;;5.50;;
63312;SDS011;49442;45.640;13.812;2022-08-25T12:53:45;14.57;;;4.53;;
63312;SDS011;49442;45.640;13.812;2022-08-25T12:56:30;10.75;;;4.97;;
63312;SDS011;49442;45.640;13.812;2022-08-25T13:07:33;10.27;;;5.00;;
63312;SDS011;49442;45.640;13.812;2022-08-25T13:15:04;7.60;;;4.97;;
63312;SDS011;49442;45.640;13.812;2022-08-25T13:17:31;11.98;;;4.90;;
63312;SDS011;49442;45.640;13.812;2022-08-25T13:22:51;9.90;;;4.78;;
63312;SDS011;49442;45.640;13.812;2022-08-25T13:25:21;10.03;;;4.27;;
63312;SDS011;49442;45.640;13.812;2022-08-25T13:27:53;9.23;;;4.28;;
63312;SDS011;49442;45.640;13.812;2022-08-25T13:30:40;12.45;;;4.97;;
63312;SDS011;49442;45.640;13.812;2022-08-25T13:33:16;10.55;;;4.43;;
63312;SDS011;49442;45.640;13.812;2022-08-25T13:35:51;14.32;;;4.82;;
63312;SDS011;49442;45.640;13.812;2022-08-25T13:38:37;10.30;;;4.97;;
63312;SDS011;49442;45.640;13.812;2022-08-25T13:41:04;8.73;;;4.50;;
63312;SDS011;49442;45.640;13.812;2022-08-25T13:43:31;9.68;;;4.88;;
63312;SDS011;49442;45.640;13.812;2022-08-25T13:45:57;18.40;;;4.90;;
63312;SDS011;49442;45.640;13.812;2022-08-25T13:49:00;10.98;;;4.68;;
63312;SDS011;49442;45.640;13.812;2022-08-25T13:51:26;7.80;;;4.80;;
63312;SDS011;49442;45.640;13.812;2022-08-25T13:54:00;9.82;;;4.90;;
63312;SDS011;49442;45.640;13.812;2022-08-25T13:59:00;6.68;;;4.22;;
63312;SDS011;49442;45.640;13.812;2022-08-25T14:01:33;5.53;;;4.25;;
63312;SDS011;49442;45.640;13.812;2022-08-25T14:10:05;10.73;;;4.65;;
63312;SDS011;49442;45.640;13.812;2022-08-25T14:15:06;13.77;;;5.10;;
63312;SDS011;49442;45.640;13.812;2022-08-25T14:20:28;17.30;;;5.32;;
63312;SDS011;49442;45.640;13.812;2022-08-25T14:22:59;7.22;;;4.95;;
63312;SDS011;49442;45.640;13.812;2022-08-25T14:25:38;9.73;;;4.78;;
63312;SDS011;49442;45.640;13.812;2022-08-25T14:28:05;10.55;;;4.65;;
63312;SDS011;49442;45.640;13.812;2022-08-25T14:30:34;9.10;;;4.68;;
63312;SDS011;49442;45.640;13.812;2022-08-25T14:33:03;15.48;;;5.20;;
63312;SDS011;49442;45.640;13.812;2022-08-25T14:35:30;9.43;;;4.82;;
63312;SDS011;49442;45.640;13.812;2022-08-25T14:37:56;17.88;;;5.45;;
63312;SDS011;49442;45.640;13.812;2022-08-25T14:40:22;13.15;;;4.60;;
63312;SDS011;49442;45.640;13.812;2022-08-25T14:42:47;15.45;;;5.07;;
63312;SDS011;49442;45.640;13.812;2022-08-25T14:45:14;8.43;;;4.72;;
63312;SDS011;49442;45.640;13.812;2022-08-25T14:47:40;9.65;;;4.63;;
63312;SDS011;49442;45.640;13.812;2022-08-25T14:50:07;10.90;;;4.18;;
63312;SDS011;49442;45.640;13.812;2022-08-25T14:52:35;12.60;;;4.40;;
63312;SDS011;49442;45.640;13.812;2022-08-25T14:55:00;8.88;;;5.03;;
63312;SDS011;49442;45.640;13.812;2022-08-25T14:57:26;8.00;;;4.60;;
63312;SDS011;49442;45.640;13.812;2022-08-25T14:59:52;13.80;;;4.75;;
63312;SDS011;49442;45.640;13.812;2022-08-25T15:02:19;11.85;;;4.78;;
63312;SDS011;49442;45.640;13.812;2022-08-25T15:04:51;7.10;;;4.35;;
63312;SDS011;49442;45.640;13.812;2022-08-25T15:07:19;15.25;;;4.75;;
63312;SDS011;49442;45.640;13.812;2022-08-25T15:10:04;7.78;;;4.35;;
63312;SDS011;49442;45.640;13.812;2022-08-25T15:12:31;7.80;;;4.10;;
63312;SDS011;49442;45.640;13.812;2022-08-25T15:14:57;12.80;;;3.88;;
63312;SDS011;49442;45.640;13.812;2022-08-25T15:17:23;12.40;;;4.20;;
63312;SDS011;49442;45.640;13.812;2022-08-25T15:19:48;8.95;;;4.25;;
63312;SDS011;49442;45.640;13.812;2022-08-25T15:22:14;8.95;;;4.72;;
63312;SDS011;49442;45.640;13.812;2022-08-25T15:24:40;11.00;;;5.18;;
63312;SDS011;49442;45.640;13.812;2022-08-25T15:27:06;12.77;;;4.97;;
63312;SDS011;49442;45.640;13.812;2022-08-25T15:29:33;13.63;;;4.95;;
63312;SDS011;49442;45.640;13.812;2022-08-25T15:32:00;16.10;;;5.00;;
63312;SDS011;49442;45.640;13.812;2022-08-25T15:34:28;10.57;;;5.07;;
63312;SDS011;49442;45.640;13.812;2022-08-25T15:36:54;9.75;;;4.60;;
63312;SDS011;49442;45.640;13.812;2022-08-25T15:39:24;9.60;;;4.47;;
63312;SDS011;49442;45.640;13.812;2022-08-25T15:41:50;9.65;;;4.75;;
63312;SDS011;49442;45.640;13.812;2022-08-25T15:44:16;12.05;;;5.07;;
63312;SDS011;49442;45.640;13.812;2022-08-25T15:46:43;13.90;;;5.05;;
63312;SDS011;49442;45.640;13.812;2022-08-25T15:49:10;13.13;;;5.03;;
63312;SDS011;49442;45.640;13.812;2022-08-25T15:51:35;7.50;;;4.63;;
63312;SDS011;49442;45.640;13.812;2022-08-25T15:54:02;9.90;;;5.15;;
63312;SDS011;49442;45.640;13.812;2022-08-25T15:56:28;9.77;;;4.78;;
63312;SDS011;49442;45.640;13.812;2022-08-25T15:58:55;12.15;;;5.05;;
63312;SDS011;49442;45.640;13.812;2022-08-25T16:01:22;10.38;;;4.90;;
63312;SDS011;49442;45.640;13.812;2022-08-25T16:03:49;11.50;;;5.50;;
63312;SDS011;49442;45.640;13.812;2022-08-25T16:06:16;10.98;;;5.20;;
63312;SDS011;49442;45.640;13.812;2022-08-25T16:08:42;9.38;;;5.38;;
63312;SDS011;49442;45.640;13.812;2022-08-25T16:11:18;10.40;;;5.00;;
63312;SDS011;49442;45.640;13.812;2022-08-25T16:13:46;9.20;;;4.75;;
63312;SDS011;49442;45.640;13.812;2022-08-25T16:16:13;12.55;;;5.13;;
63312;SDS011;49442;45.640;13.812;2022-08-25T16:18:40;9.82;;;5.05;;
63312;SDS011;49442;45.640;13.812;2022-08-25T16:21:08;13.95;;;4.97;;
63312;SDS011;49442;45.640;13.812;2022-08-25T16:23:35;7.78;;;5.03;;
63312;SDS011;49442;45.640;13.812;2022-08-25T16:26:02;14.00;;;5.38;;
63312;SDS011;49442;45.640;13.812;2022-08-25T16:28:29;9.10;;;4.45;;
63312;SDS011;49442;45.640;13.812;2022-08-25T16:30:55;8.80;;;5.15;;
63312;SDS011;49442;45.640;13.812;2022-08-25T16:33:21;12.25;;;4.85;;
63312;SDS011;49442;45.640;13.812;2022-08-25T16:35:46;8.27;;;5.32;;
63312;SDS011;49442;45.640;13.812;2022-08-25T16:38:12;14.05;;;5.28;;
63312;SDS011;49442;45.640;13.812;2022-08-25T16:40:39;17.15;;;5.85;;
63312;SDS011;49442;45.640;13.812;2022-08-25T16:43:06;19.08;;;6.63;;
63312;SDS011;49442;45.640;13.812;2022-08-25T16:45:33;11.32;;;5.18;;
63312;SDS011;49442;45.640;13.812;2022-08-25T16:47:59;14.27;;;5.18;;
63312;SDS011;49442;45.640;13.812;2022-08-25T16:50:25;10.63;;;5.50;;
63312;SDS011;49442;45.640;13.812;2022-08-25T16:52:51;11.52;;;5.05;;
63312;SDS011;49442;45.640;13.812;2022-08-25T16:55:35;14.55;;;5.40;;
63312;SDS011;49442;45.640;13.812;2022-08-25T16:58:01;7.97;;;4.53;;
63312;SDS011;49442;45.640;13.812;2022-08-25T17:00:28;9.00;;;5.50;;